Time;durP1;ratioP1;P1;durP2;ratioP2;P2;SDS_P1;SDS_P2;PMS_P1;PMS_P2;Temp;Humidity;BMP_temperature;BMP_pressure;BME280_temperature;BME280_humidity;BME280_pressure;Samples;Min_cycle;Max_cycle;Signal;HPM_P1;HPM_P2
2023/10/16 00:01:26;;;;;;;;;;;;;;;3.61;100.00;97114.66;5065366;28;19940;-80
2023/10/16 00:03:52;;;;;;;;;;;;;;;3.60;100.00;97108.69;5065208;28;19935;-79
2023/10/16 00:06:18;;;;;;;;;;;;;;;3.60;100.00;97102.69;5065203;28;19942;-77
2023/10/16 00:08:47;;;;;;;;;;;;;;;3.58;100.00;97097.66;5065101;28;19956;-77
2023/10/16 00:11:16;;;;;;;;;;;;;;;3.58;100.00;97097.66;5065103;28;19945;-73
2023/10/16 00:13:52;;;;;;;;;;;;;;;3.57;100.00;97098.63;5065095;28;19935;-76
2023/10/16 00:16:20;;;;;;;;;;;;;;;3.56;100.00;97098.78;5065618;28;19943;-72
2023/10/16 00:18:47;;;;;;;;;;;;;;;3.55;100.00;97097.97;5065514;28;20120;-73
2023/10/16 00:21:13;;;;;;;;;;;;;;;3.54;100.00;97100.72;5064925;28;19936;-73
2023/10/16 00:23:40;;;;;;;;;;;;;;;3.49;100.00;97093.41;5065152;28;19939;-75
2023/10/16 00:26:06;;;;;;;;;;;;;;;3.45;100.00;97089.50;5064783;28;19943;-73
2023/10/16 00:28:33;;;;;;;;;;;;;;;3.42;100.00;97082.88;5064721;28;19951;-73
2023/10/16 00:30:59;;;;;;;;;;;;;;;3.40;100.00;97078.78;5064757;28;19943;-77
2023/10/16 00:33:25;;;;;;;;;;;;;;;3.36;100.00;97078.31;5064718;28;20216;-71
2023/10/16 00:35:51;;;;;;;;;;;;;;;3.33;100.00;97081.19;5064544;28;19949;-73
2023/10/16 00:38:19;;;;;;;;;;;;;;;3.32;100.00;97064.03;5064605;28;19977;-72
2023/10/16 00:40:51;;;;;;;;;;;;;;;3.32;100.00;97065.78;5064574;28;19934;-71
2023/10/16 00:43:20;;;;;;;;;;;;;;;3.30;100.00;97052.16;5064550;28;19935;-72
2023/10/16 00:45:49;;;;;;;;;;;;;;;3.27;100.00;97068.06;5065222;28;20100;-71
2023/10/16 00:48:18;;;;;;;;;;;;;;;3.24;100.00;97067.41;5063574;28;19963;-72
2023/10/16 00:50:45;;;;;;;;;;;;;;;3.23;100.00;97062.34;5064391;28;19941;-72
2023/10/16 00:53:13;;;;;;;;;;;;;;;3.23;100.00;97059.75;5063922;28;20329;-71
2023/10/16 00:55:39;;;;;;;;;;;;;;;3.21;100.00;97065.13;5064814;28;19939;-71
2023/10/16 00:58:06;;;;;;;;;;;;;;;3.20;100.00;97062.69;5064259;28;19942;-71
2023/10/16 01:00:35;;;;;;;;;;;;;;;3.18;100.00;97057.66;5064183;28;19939;-71
2023/10/16 01:03:04;;;;;;;;;;;;;;;3.17;100.00;97050.03;5064737;28;19936;-70
2023/10/16 01:05:33;;;;;;;;;;;;;;;3.15;100.00;97057.97;5064152;28;19941;-72
2023/10/16 01:08:04;;;;;;;;;;;;;;;3.18;100.00;97017.97;5064219;28;19958;-75
2023/10/16 01:10:32;;;;;;;;;;;;;;;3.16;100.00;97015.53;5064722;28;20112;-74
2023/10/16 01:12:59;;;;;;;;;;;;;;;3.15;100.00;97021.69;5064876;28;19928;-75
2023/10/16 01:15:25;;;;;;;;;;;;;;;3.15;100.00;97010.50;5064042;28;20238;-73
2023/10/16 01:17:52;;;;;;;;;;;;;;;3.16;100.00;97018.13;5064538;28;20113;-74
2023/10/16 01:20:18;;;;;;;;;;;;;;;3.16;100.00;97020.72;5064771;28;19940;-74
2023/10/16 01:22:52;;;;;;;;;;;;;;;3.14;100.00;97012.28;5064534;28;19936;-74
2023/10/16 01:25:18;;;;;;;;;;;;;;;3.14;100.00;97011.47;5064254;28;19937;-69
2023/10/16 01:27:44;;;;;;;;;;;;;;;3.12;100.00;97005.63;5064118;28;19947;-72
2023/10/16 01:30:10;;;;;;;;;;;;;;;3.09;100.00;97011.13;5063916;28;19959;-72
2023/10/16 01:32:39;;;;;;;;;;;;;;;3.07;100.00;96998.34;5063915;28;19937;-72
2023/10/16 01:35:08;;;;;;;;;;;;;;;3.03;100.00;96994.44;5064548;28;19954;-72
2023/10/16 01:37:41;;;;;;;;;;;;;;;3.01;100.00;97004.94;5063893;28;20262;-72
2023/10/16 01:40:25;;;;;;;;;;;;;;;3.00;100.00;97005.09;5063831;28;19939;-72
2023/10/16 01:42:54;;;;;;;;;;;;;;;2.97;100.00;97010.59;5063817;28;19930;-72
2023/10/16 01:45:20;;;;;;;;;;;;;;;2.93;100.00;97007.50;5063857;28;20222;-71
2023/10/16 01:47:47;;;;;;;;;;;;;;;2.92;100.00;97005.06;5063446;28;20271;-73
2023/10/16 01:50:23;;;;;;;;;;;;;;;2.89;100.00;97008.78;5063679;28;19932;-72
2023/10/16 01:52:49;;;;;;;;;;;;;;;2.87;100.00;97010.72;5063665;28;19941;-73
2023/10/16 01:55:16;;;;;;;;;;;;;;;2.85;100.00;97007.47;5063636;28;19946;-72
2023/10/16 01:57:44;;;;;;;;;;;;;;;2.85;100.00;97007.47;5063607;28;19939;-73
2023/10/16 02:00:16;;;;;;;;;;;;;;;2.87;100.00;97004.72;5066063;28;19934;-72
2023/10/16 02:02:42;;;;;;;;;;;;;;;2.86;100.00;96993.56;5067606;28;19955;-73
2023/10/16 02:05:10;;;;;;;;;;;;;;;2.88;100.00;97001.16;5067462;28;20124;-73
2023/10/16 02:07:41;;;;;;;;;;;;;;;2.90;100.00;96991.44;5068177;28;19947;-72
2023/10/16 02:10:11;;;;;;;;;;;;;;;2.94;100.00;97000.53;5067550;28;19947;-73
2023/10/16 02:12:38;;;;;;;;;;;;;;;2.96;100.00;96998.59;5067938;28;20274;-72
2023/10/16 02:15:06;;;;;;;;;;;;;;;2.96;100.00;96996.00;5067244;28;19937;-73
2023/10/16 02:17:32;;;;;;;;;;;;;;;2.95;100.00;96984.03;5067280;28;19936;-72
2023/10/16 02:19:58;;;;;;;;;;;;;;;2.96;100.00;96985.66;5067756;28;19980;-71
2023/10/16 02:22:23;;;;;;;;;;;;;;;2.92;100.00;96980.00;5067725;28;19940;-71
2023/10/16 02:24:50;;;;;;;;;;;;;;;2.89;100.00;96982.88;5067092;28;19936;-80
2023/10/16 02:27:18;;;;;;;;;;;;;;;2.87;100.00;96984.00;5067314;28;19936;-78
2023/10/16 02:29:48;;;;;;;;;;;;;;;2.84;100.00;96990.31;5066947;28;19952;-78
2023/10/16 02:32:15;;;;;;;;;;;;;;;2.83;100.00;96976.56;5067828;28;19960;-78
2023/10/16 02:34:41;;;;;;;;;;;;;;;2.81;100.00;96973.31;5066809;28;19970;-79
2023/10/16 02:37:09;;;;;;;;;;;;;;;2.82;100.00;96974.13;5066807;28;19958;-77
2023/10/16 02:39:35;;;;;;;;;;;;;;;2.83;100.00;96980.91;5066864;28;19939;-73
2023/10/16 02:42:06;;;;;;;;;;;;;;;2.82;100.00;96974.91;5067573;28;19971;-70
2023/10/16 02:44:33;;;;;;;;;;;;;;;2.77;100.00;96979.78;5066787;28;19966;-70
2023/10/16 02:46:59;;;;;;;;;;;;;;;2.74;100.00;96980.06;5066550;28;19932;-70
2023/10/16 02:49:24;;;;;;;;;;;;;;;2.74;100.00;96984.44;5066672;28;20191;-69
2023/10/16 02:51:52;;;;;;;;;;;;;;;2.69;100.00;96982.31;5066884;28;19981;-70
2023/10/16 02:54:18;;;;;;;;;;;;;;;2.67;100.00;96979.06;5066527;28;19936;-69
2023/10/16 02:56:44;;;;;;;;;;;;;;;2.67;100.00;96984.25;5066545;28;19941;-70
2023/10/16 02:59:11;;;;;;;;;;;;;;;2.67;100.00;96973.88;5066536;28;19934;-73
2023/10/16 03:01:38;;;;;;;;;;;;;;;2.73;100.00;96987.97;5066457;28;19959;-71
2023/10/16 03:04:05;;;;;;;;;;;;;;;2.75;100.00;96962.72;5066329;28;19932;-71
2023/10/16 03:06:31;;;;;;;;;;;;;;;2.76;100.00;96957.41;5066388;28;19942;-72
2023/10/16 03:09:25;;;;;;;;;;;;;;;2.77;100.00;96963.41;5067007;28;19957;-72
2023/10/16 03:11:47;;;;;;;;;;;;;;;2.72;100.00;96950.91;5065786;28;19944;-72
2023/10/16 03:14:13;;;;;;;;;;;;;;;2.67;100.00;96952.34;5066177;28;19954;-71
2023/10/16 03:16:38;;;;;;;;;;;;;;;2.60;100.00;96952.16;5066986;28;20253;-71
2023/10/16 03:19:09;;;;;;;;;;;;;;;2.55;100.00;96950.03;5066129;28;19932;-69
2023/10/16 03:21:35;;;;;;;;;;;;;;;2.52;100.00;96940.00;5066152;28;19946;-69
2023/10/16 03:24:01;;;;;;;;;;;;;;;2.50;100.00;96946.28;5066204;28;19940;-70
2023/10/16 03:26:30;;;;;;;;;;;;;;;2.48;100.00;96951.63;5066820;28;19939;-69
2023/10/16 03:28:56;;;;;;;;;;;;;;;2.47;100.00;96944.00;5066706;28;19951;-69
2023/10/16 03:31:23;;;;;;;;;;;;;;;2.43;100.00;96941.72;5065898;28;19945;-69
2023/10/16 03:33:49;;;;;;;;;;;;;;;2.39;100.00;96935.25;5065917;28;19952;-73
2023/10/16 03:36:16;;;;;;;;;;;;;;;2.36;100.00;96932.97;5066114;28;19969;-77
2023/10/16 03:38:42;;;;;;;;;;;;;;;2.35;100.00;96935.69;5065834;28;19929;-78
2023/10/16 03:41:13;;;;;;;;;;;;;;;2.33;100.00;96933.28;5065778;28;19935;-76
2023/10/16 03:43:42;;;;;;;;;;;;;;;2.29;100.00;96931.13;5066487;28;20215;-76
2023/10/16 03:46:12;;;;;;;;;;;;;;;2.22;100.00;96936.91;5066141;28;19937;-77
2023/10/16 03:48:38;;;;;;;;;;;;;;;2.19;100.00;96933.84;5065339;28;19975;-76
2023/10/16 03:51:08;;;;;;;;;;;;;;;2.16;100.00;96936.72;5065537;28;19939;-77
2023/10/16 03:53:35;;;;;;;;;;;;;;;2.13;100.00;96939.63;5066005;28;19936;-72
2023/10/16 03:56:02;;;;;;;;;;;;;;;2.07;100.00;96938.44;5065407;28;20249;-76
2023/10/16 03:58:33;;;;;;;;;;;;;;;2.07;100.00;96942.81;5065321;28;19941;-76
2023/10/16 04:01:07;;;;;;;;;;;;;;;2.05;100.00;96937.78;5065830;28;19941;-76
2023/10/16 04:03:56;;;;;;;;;;;;;;;2.03;100.00;96935.34;5065788;28;19948;-77
2023/10/16 04:06:22;;;;;;;;;;;;;;;2.01;100.00;96933.88;5065225;28;20236;-77
2023/10/16 04:08:49;;;;;;;;;;;;;;;1.99;100.00;96935.81;5064977;28;20023;-77
2023/10/16 04:11:15;;;;;;;;;;;;;;;1.97;100.00;96941.13;5065065;28;19936;-72
2023/10/16 04:13:47;;;;;;;;;;;;;;;1.95;100.00;96927.56;5065049;28;19944;-74
2023/10/16 04:22:09;;;;;;;;;;;;;;;1.94;100.00;96931.09;5023773;28;20102;-73
2023/10/16 04:24:44;;;;;;;;;;;;;;;1.95;100.00;96930.16;5048180;28;20244;-72
2023/10/16 04:34:56;;;;;;;;;;;;;;;1.90;100.00;96929.78;5065080;28;19951;-72
2023/10/16 04:37:36;;;;;;;;;;;;;;;1.90;100.00;96928.97;5065382;28;20124;-72
2023/10/16 04:42:50;;;;;;;;;;;;;;;1.87;100.00;96917.16;5065159;28;20174;-73
2023/10/16 05:11:27;;;;;;;;;;;;;;;2.33;100.00;96894.47;5064690;28;19947;-70
2023/10/16 05:16:48;;;;;;;;;;;;;;;2.11;100.00;96900.97;5064083;28;19931;-69
2023/10/16 06:14:09;;;;;;;;;;;;;;;1.96;100.00;96902.50;5064917;28;19933;-68
2023/10/16 06:14:12;;;;;;;;;;;;;;;1.56;100.00;96914.19;5067685;28;19958;-77
2023/10/16 06:16:42;;;;;;;;;;;;;;;1.58;100.00;96914.84;5067308;28;20129;-79
2023/10/16 06:19:15;;;;;;;;;;;;;;;1.63;100.00;96913.41;5067196;28;19934;-69
2023/10/16 06:21:50;;;;;;;;;;;;;;;1.70;100.00;96916.22;5067225;28;19942;-79
2023/10/16 06:24:33;;;;;;;;;;;;;;;1.86;100.00;96917.28;5067332;28;19935;-72
2023/10/16 06:27:00;;;;;;;;;;;;;;;2.03;100.00;96926.78;5067105;28;19934;-72
2023/10/16 06:29:35;;;;;;;;;;;;;;;2.09;100.00;96922.78;5066977;28;19953;-73
2023/10/16 06:32:19;;;;;;;;;;;;;;;2.13;100.00;96924.09;5066940;28;19941;-73
2023/10/16 06:34:49;;;;;;;;;;;;;;;2.19;100.00;96924.28;5067726;28;19953;-73
2023/10/16 06:37:19;;;;;;;;;;;;;;;2.24;100.00;96916.06;5066844;28;19947;-72
2023/10/16 06:39:45;;;;;;;;;;;;;;;2.32;100.00;96923.88;5066909;28;19934;-70
2023/10/16 06:42:17;;;;;;;;;;;;;;;2.38;100.00;96914.69;5067270;28;19934;-79
2023/10/16 06:47:41;;;;;;;;;;;;;;;2.60;100.00;96908.97;5065746;28;19974;-79
2023/10/16 06:50:32;;;;;;;;;;;;;;;2.71;100.00;96904.44;5067088;28;19966;-79
2023/10/16 06:52:55;;;;;;;;;;;;;;;2.86;100.00;96900.31;5066598;28;20119;-78
2023/10/16 06:55:21;;;;;;;;;;;;;;;2.98;100.00;96896.47;5066542;28;20130;-71
2023/10/16 06:57:47;;;;;;;;;;;;;;;3.16;100.00;96903.28;5066592;28;19935;-72
2023/10/16 07:00:25;;;;;;;;;;;;;;;3.34;100.00;96896.19;5066199;28;20251;-76
2023/10/16 07:02:54;;;;;;;;;;;;;;;3.51;100.00;96890.97;5067260;28;19957;-76
2023/10/16 07:05:22;;;;;;;;;;;;;;;3.60;100.00;96897.81;5067158;28;19938;-75
2023/10/16 07:07:52;;;;;;;;;;;;;;;3.69;100.00;96902.00;5066325;28;19942;-78
2023/10/16 07:10:18;;;;;;;;;;;;;;;3.73;100.00;96892.13;5066893;28;19954;-75
2023/10/16 07:12:59;;;;;;;;;;;;;;;3.77;100.00;96891.63;5066151;28;19935;-77
2023/10/16 07:15:31;;;;;;;;;;;;;;;3.84;100.00;96897.78;5066234;28;19937;-71
2023/10/16 07:18:04;;;;;;;;;;;;;;;3.94;100.00;96899.38;5066663;28;19947;-71
2023/10/16 07:20:31;;;;;;;;;;;;;;;4.01;100.00;96908.97;5066109;28;19938;-70
2023/10/16 07:23:00;;;;;;;;;;;;;;;4.11;100.00;96897.56;5066257;28;20117;-72
2023/10/16 07:25:37;;;;;;;;;;;;;;;4.19;100.00;96913.94;5065962;28;19933;-71
2023/10/16 07:28:09;;;;;;;;;;;;;;;4.23;100.00;96909.22;5066174;28;19935;-71
2023/10/16 07:30:42;;;;;;;;;;;;;;;4.26;100.00;96899.34;5064702;28;20269;-71
2023/10/16 07:33:14;;;;;;;;;;;;;;;4.28;100.00;96893.94;5066417;28;20207;-69
2023/10/16 07:35:47;;;;;;;;;;;;;;;4.21;100.00;96886.03;5066563;28;19955;-71
2023/10/16 07:38:15;;;;;;;;;;;;;;;4.22;100.00;96885.06;5065640;28;19939;-71
2023/10/16 07:40:41;;;;;;;;;;;;;;;4.29;100.00;96882.59;5065637;28;19939;-71
2023/10/16 07:43:06;;;;;;;;;;;;;;;4.35;100.00;96881.94;5065608;28;19935;-71
2023/10/16 07:45:32;;;;;;;;;;;;;;;4.45;100.00;96894.69;5065496;28;19939;-70
2023/10/16 07:48:07;;;;;;;;;;;;;;;4.50;100.00;96897.63;5065357;28;19973;-70
2023/10/16 07:50:38;;;;;;;;;;;;;;;4.49;100.00;96903.78;5065479;28;19958;-70
2023/10/16 07:53:08;;;;;;;;;;;;;;;4.50;100.00;96889.03;5066198;28;19933;-72
2023/10/16 07:55:40;;;;;;;;;;;;;;;4.51;100.00;96890.63;5065394;28;20106;-71
2023/10/16 07:58:16;;;;;;;;;;;;;;;4.47;100.00;96884.97;5065099;28;20003;-71
2023/10/16 08:00:56;;;;;;;;;;;;;;;4.47;100.00;96890.97;5065586;28;19928;-70
2023/10/16 08:03:22;;;;;;;;;;;;;;;4.56;100.00;96902.16;5065253;28;20226;-71
2023/10/16 08:05:48;;;;;;;;;;;;;;;4.71;100.00;96901.44;5065164;28;19947;-70
2023/10/16 08:08:15;;;;;;;;;;;;;;;4.84;100.00;96905.09;5065147;28;19978;-71
2023/10/16 08:10:41;;;;;;;;;;;;;;;5.03;100.00;96903.84;5065824;28;19946;-73
2023/10/16 08:13:14;;;;;;;;;;;;;;;5.23;100.00;96888.63;5065052;28;19936;-70
2023/10/16 08:15:49;;;;;;;;;;;;;;;5.44;100.00;96889.78;5065787;28;19937;-71
2023/10/16 08:18:18;;;;;;;;;;;;;;;5.61;100.00;96885.28;5065509;28;19935;-70
2023/10/16 08:21:00;;;;;;;;;;;;;;;5.67;100.00;96882.78;5064860;28;19939;-70
2023/10/16 08:23:33;;;;;;;;;;;;;;;5.73;100.00;96878.63;5065715;28;19950;-70
2023/10/16 08:26:00;;;;;;;;;;;;;;;5.83;100.00;96879.19;5064788;28;19945;-70
2023/10/16 08:28:35;;;;;;;;;;;;;;;5.99;100.00;96872.28;5064818;28;19939;-69
2023/10/16 08:31:22;;;;;;;;;;;;;;;6.16;100.00;96880.72;5065251;28;19960;-69
2023/10/16 08:33:47;;;;;;;;;;;;;;;6.25;100.00;96877.03;5064554;28;20135;-69
2023/10/16 08:36:13;;;;;;;;;;;;;;;6.34;100.00;96882.94;5064566;28;19949;-69
2023/10/16 08:38:40;;;;;;;;;;;;;;;6.42;100.00;96894.09;5065361;28;20100;-69
2023/10/16 08:41:14;;;;;;;;;;;;;;;6.55;100.00;96890.03;5064492;28;19961;-69
2023/10/16 08:43:53;;;;;;;;;;;;;;;6.66;100.00;96887.78;5065280;28;19939;-69
2023/10/16 08:46:34;;;;;;;;;;;;;;;6.77;100.00;96894.34;5064560;28;20089;-77
2023/10/16 08:49:01;;;;;;;;;;;;;;;6.83;100.00;96904.03;5064202;28;19963;-74
2023/10/16 08:51:30;;;;;;;;;;;;;;;6.83;100.00;96888.38;5064832;28;19945;-74
2023/10/16 08:54:00;;;;;;;;;;;;;;;6.85;100.00;96891.63;5064203;28;20196;-74
2023/10/16 08:56:26;;;;;;;;;;;;;;;6.89;100.00;96899.91;5064269;28;19947;-74
2023/10/16 08:58:55;;;;;;;;;;;;;;;6.95;100.00;96888.72;5064210;28;19942;-73
2023/10/16 09:01:23;;;;;;;;;;;;;;;7.04;100.00;96892.03;5064210;28;19938;-74
2023/10/16 09:03:56;;;;;;;;;;;;;;;7.12;100.00;96881.50;5064085;28;19936;-74
2023/10/16 09:06:23;;;;;;;;;;;;;;;7.17;100.00;96879.13;5064919;28;19937;-73
2023/10/16 09:08:54;;;;;;;;;;;;;;;7.30;100.00;96883.66;5063988;28;19944;-72
2023/10/16 09:11:20;;;;;;;;;;;;;;;7.41;100.00;96882.34;5063991;28;19939;-72
2023/10/16 09:13:51;;;;;;;;;;;;;;;7.51;100.00;96875.81;5064042;28;19954;-72
2023/10/16 09:16:30;;;;;;;;;;;;;;;7.65;100.00;96868.91;5064738;28;19939;-72
2023/10/16 09:18:58;;;;;;;;;;;;;;;7.72;100.00;96869.78;5064781;28;19935;-72
2023/10/16 09:21:30;;;;;;;;;;;;;;;7.80;99.50;96845.34;5064664;28;19939;-72
2023/10/16 09:23:58;;;;;;;;;;;;;;;7.84;100.00;96864.03;5064680;28;20208;-76
2023/10/16 09:26:25;;;;;;;;;;;;;;;7.86;100.00;96857.63;5063925;28;20127;-73
2023/10/16 09:28:53;;;;;;;;;;;;;;;7.89;100.00;96856.44;5064113;28;19944;-73
2023/10/16 09:31:19;;;;;;;;;;;;;;;7.92;99.62;96833.38;5063721;28;19943;-73
2023/10/16 09:33:48;;;;;;;;;;;;;;;7.98;99.70;96834.41;5063837;28;19959;-73
2023/10/16 09:36:23;;;;;;;;;;;;;;;7.99;98.37;96820.34;5063750;28;19953;-74
2023/10/16 09:38:53;;;;;;;;;;;;;;;8.05;100.00;96831.84;5063815;28;20126;-74
2023/10/16 09:41:38;;;;;;;;;;;;;;;8.13;100.00;96832.50;5063738;28;19935;-69
2023/10/16 09:44:07;;;;;;;;;;;;;;;8.24;100.00;96833.75;5064594;28;19933;-73
2023/10/16 09:46:52;;;;;;;;;;;;;;;8.32;100.00;96835.41;5064473;28;20210;-77
2023/10/16 09:49:22;;;;;;;;;;;;;;;8.40;99.27;96819.56;5064364;28;20141;-77
2023/10/16 09:51:48;;;;;;;;;;;;;;;8.46;98.60;96812.75;5063646;28;19943;-77
2023/10/16 09:54:15;;;;;;;;;;;;;;;8.52;98.43;96818.03;5063607;28;19987;-77
2023/10/16 09:56:52;;;;;;;;;;;;;;;8.57;96.32;96799.16;5063592;28;19934;-76
2023/10/16 09:59:34;;;;;;;;;;;;;;;8.65;95.59;96792.91;5064450;28;19928;-70
2023/10/16 10:02:09;;;;;;;;;;;;;;;8.71;92.82;96779.06;5063055;28;19966;-80
2023/10/16 10:04:36;;;;;;;;;;;;;;;8.79;95.53;96799.00;5064125;28;19940;-80
2023/10/16 10:07:11;;;;;;;;;;;;;;;8.89;96.62;96807.28;5063725;28;19933;-78
2023/10/16 10:09:41;;;;;;;;;;;;;;;9.01;95.39;96794.41;5063501;28;20235;-79
2023/10/16 10:12:22;;;;;;;;;;;;;;;9.11;95.29;96789.59;5063395;28;19940;-80
2023/10/16 10:15:10;;;;;;;;;;;;;;;9.25;94.84;96786.00;5063501;28;19936;-80
2023/10/16 10:17:38;;;;;;;;;;;;;;;9.44;95.23;96794.84;5063681;28;19943;-79
2023/10/16 10:20:08;;;;;;;;;;;;;;;9.61;93.96;96783.97;5063055;28;19935;-73
2023/10/16 10:22:35;;;;;;;;;;;;;;;9.73;92.01;96762.19;5067163;28;19933;-73
2023/10/16 10:25:17;;;;;;;;;;;;;;;9.75;87.10;96726.13;5067435;28;20112;-74
2023/10/16 10:27:43;;;;;;;;;;;;;;;9.73;87.74;96738.63;5067124;28;20125;-73
2023/10/16 10:30:10;;;;;;;;;;;;;;;9.67;85.57;96720.31;5067756;28;20228;-74
2023/10/16 10:32:36;;;;;;;;;;;;;;;9.68;89.96;96755.94;5067009;28;19939;-73
2023/10/16 10:35:28;;;;;;;;;;;;;;;9.82;90.49;96762.78;5066934;28;20132;-73
2023/10/16 10:38:20;;;;;;;;;;;;;;;10.02;87.98;96740.97;5067274;28;19940;-77
2023/10/16 10:41:15;;;;;;;;;;;;;;;10.15;88.59;96726.00;5067698;28;19937;-72
2023/10/16 10:43:49;;;;;;;;;;;;;;;10.06;87.69;96735.13;5058294;28;19943;-71
2023/10/16 10:46:21;;;;;;;;;;;;;;;10.16;88.05;96729.41;5067046;28;19937;-72
2023/10/16 10:48:46;;;;;;;;;;;;;;;10.32;89.63;96742.06;5066735;28;20159;-71
2023/10/16 10:51:15;;;;;;;;;;;;;;;10.33;80.79;96679.97;5066662;28;19956;-72
2023/10/16 10:53:53;;;;;;;;;;;;;;;10.40;85.19;96712.22;5066631;28;19943;-72
2023/10/16 10:56:20;;;;;;;;;;;;;;;10.54;87.28;96716.38;5066617;28;19935;-73
2023/10/16 10:58:47;;;;;;;;;;;;;;;10.66;78.85;96648.28;5066613;28;20100;-73
2023/10/16 11:01:16;;;;;;;;;;;;;;;10.70;81.89;96674.91;5066451;28;19924;-73
2023/10/16 11:03:45;;;;;;;;;;;;;;;10.90;82.54;96682.66;5067287;28;19931;-73
2023/10/16 11:06:39;;;;;;;;;;;;;;;10.90;74.28;96607.34;5066436;28;20207;-73
2023/10/16 11:09:11;;;;;;;;;;;;;;;10.81;75.20;96613.88;5067199;28;19941;-73
2023/10/16 11:11:39;;;;;;;;;;;;;;;10.86;79.78;96626.38;5066892;28;20115;-72
2023/10/16 11:14:07;;;;;;;;;;;;;;;10.95;78.28;96646.06;5066561;28;19944;-73
2023/10/16 11:16:42;;;;;;;;;;;;;;;11.15;80.59;96653.78;5067005;28;19939;-77
2023/10/16 11:19:09;;;;;;;;;;;;;;;11.38;78.42;96632.94;5066459;28;19943;-79
2023/10/16 11:21:43;;;;;;;;;;;;;;;11.57;74.69;96617.97;5066123;28;19945;-79
2023/10/16 11:24:13;;;;;;;;;;;;;;;11.66;73.86;96594.03;5064834;28;19928;-79
2023/10/16 11:26:41;;;;;;;;;;;;;;;11.53;72.17;96714.00;5066813;28;19934;-78
2023/10/16 11:29:06;;;;;;;;;;;;;;;11.55;74.34;96709.31;5065947;28;20225;-79
2023/10/16 11:31:40;;;;;;;;;;;;;;;11.66;77.03;96725.41;5064358;28;19973;-71
2023/10/16 11:34:21;;;;;;;;;;;;;;;11.71;70.52;96699.25;5066563;28;19941;-72
2023/10/16 11:36:50;;;;;;;;;;;;;;;11.75;74.19;96713.56;5066452;28;19941;-72
2023/10/16 11:39:19;;;;;;;;;;;;;;;11.78;75.93;96711.31;5065771;28;19942;-72
2023/10/16 11:41:46;;;;;;;;;;;;;;;11.84;69.99;96700.94;5065733;28;19934;-72
2023/10/16 11:44:16;;;;;;;;;;;;;;;11.77;71.64;96695.75;5065553;28;19940;-72
2023/10/16 11:46:52;;;;;;;;;;;;;;;11.79;74.87;96701.59;5066393;28;19931;-72
2023/10/16 11:49:35;;;;;;;;;;;;;;;11.84;73.16;96682.53;5064801;28;20245;-72
2023/10/16 11:52:19;;;;;;;;;;;;;;;11.81;68.03;96678.53;5065600;28;19957;-77
2023/10/16 11:54:46;;;;;;;;;;;;;;;11.70;73.37;96684.53;5065350;28;19941;-69
2023/10/16 11:57:15;;;;;;;;;;;;;;;11.74;74.29;96685.69;5065391;28;19937;-70
2023/10/16 11:59:41;;;;;;;;;;;;;;;11.80;73.72;96684.81;5065304;28;19959;-70
2023/10/16 12:02:14;;;;;;;;;;;;;;;11.73;69.32;96674.38;5065882;28;20203;-70
2023/10/16 12:04:41;;;;;;;;;;;;;;;11.54;70.45;96678.03;5065297;28;19928;-70
2023/10/16 12:07:12;;;;;;;;;;;;;;;11.56;72.02;96676.78;5065204;28;19942;-70
2023/10/16 12:09:42;;;;;;;;;;;;;;;11.48;71.75;96669.19;5066006;28;19942;-70
2023/10/16 12:12:20;;;;;;;;;;;;;;;11.36;67.12;96670.94;5065093;28;19928;-73
2023/10/16 12:14:48;;;;;;;;;;;;;;;11.30;71.07;96669.19;5065701;28;19937;-73
2023/10/16 12:17:19;;;;;;;;;;;;;;;11.39;72.68;96673.13;5065544;28;19936;-73
2023/10/16 12:19:45;;;;;;;;;;;;;;;11.55;73.40;96671.75;5065073;28;20092;-73
2023/10/16 12:22:15;;;;;;;;;;;;;;;11.69;75.36;96669.78;5064997;28;19938;-73
2023/10/16 12:24:44;;;;;;;;;;;;;;;11.74;73.50;96662.84;5064908;28;19935;-73
2023/10/16 12:27:10;;;;;;;;;;;;;;;11.66;68.79;96638.72;5064833;28;19928;-69
2023/10/16 12:29:36;;;;;;;;;;;;;;;11.64;70.96;96641.53;5064812;28;19931;-76
2023/10/16 12:32:03;;;;;;;;;;;;;;;11.65;71.55;96640.50;5064746;28;19936;-71
2023/10/16 12:34:32;;;;;;;;;;;;;;;11.64;68.74;96623.16;5064619;28;19959;-73
2023/10/16 12:36:59;;;;;;;;;;;;;;;11.71;71.86;96638.84;5064662;28;20119;-72
2023/10/16 12:39:24;;;;;;;;;;;;;;;11.77;72.17;96635.31;5064598;28;20028;-72
2023/10/16 12:41:53;;;;;;;;;;;;;;;11.81;67.00;96615.47;5064616;28;20236;-72
2023/10/16 12:44:19;;;;;;;;;;;;;;;11.84;70.62;96630.78;5063711;28;20218;-72
2023/10/16 12:46:45;;;;;;;;;;;;;;;11.93;73.07;96632.13;5064202;28;19941;-72
2023/10/16 12:49:13;;;;;;;;;;;;;;;12.01;72.46;96628.41;5064403;28;19940;-71
2023/10/16 12:51:40;;;;;;;;;;;;;;;11.94;69.94;96628.47;5064358;28;19962;-72
2023/10/16 12:54:06;;;;;;;;;;;;;;;11.95;70.07;96624.03;5064410;28;19935;-72
2023/10/16 12:56:32;;;;;;;;;;;;;;;11.88;68.17;96613.59;5064372;28;19935;-72
2023/10/16 12:58:59;;;;;;;;;;;;;;;11.84;65.69;96612.38;5064900;28;19937;-71
2023/10/16 13:01:25;;;;;;;;;;;;;;;11.77;64.74;96611.69;5064186;28;19938;-72
2023/10/16 13:03:51;;;;;;;;;;;;;;;11.64;64.55;96607.41;5064273;28;19940;-71
2023/10/16 13:06:17;;;;;;;;;;;;;;;11.58;65.52;96603.81;5064194;28;19930;-72
2023/10/16 13:08:43;;;;;;;;;;;;;;;11.58;65.57;96603.03;5064217;28;19974;-72
2023/10/16 13:11:10;;;;;;;;;;;;;;;11.38;64.69;96601.44;5064792;28;19957;-73
2023/10/16 13:13:35;;;;;;;;;;;;;;;11.46;66.09;96602.16;5064650;28;19946;-73
2023/10/16 13:16:04;;;;;;;;;;;;;;;11.65;67.89;96605.56;5064007;28;20239;-73
2023/10/16 13:18:30;;;;;;;;;;;;;;;11.79;68.91;96601.75;5064007;28;19937;-72
2023/10/16 13:23:55;;;;;;;;;;;;;;;11.85;69.42;96602.69;5030713;28;19937;-72
2023/10/16 13:26:21;;;;;;;;;;;;;;;11.88;68.43;96603.06;5063952;28;19939;-71
2023/10/16 13:28:47;;;;;;;;;;;;;;;11.99;66.91;96598.91;5063913;28;19941;-71
2023/10/16 13:31:13;;;;;;;;;;;;;;;12.05;67.28;96602.47;5063836;28;19959;-70
2023/10/16 13:33:42;;;;;;;;;;;;;;;12.01;65.29;96593.41;5064413;28;19936;-71
2023/10/16 13:36:11;;;;;;;;;;;;;;;12.02;68.52;96605.53;5063905;28;19958;-71
2023/10/16 13:38:38;;;;;;;;;;;;;;;12.04;66.90;96604.28;5063308;28;20224;-71
2023/10/16 13:41:17;;;;;;;;;;;;;;;12.02;66.31;96601.09;5064308;28;20217;-71
2023/10/16 13:43:43;;;;;;;;;;;;;;;11.98;64.77;96607.81;5064443;28;19985;-75
2023/10/16 13:46:09;;;;;;;;;;;;;;;11.83;62.34;96597.66;5064051;28;20151;-76
2023/10/16 13:48:34;;;;;;;;;;;;;;;11.71;63.37;96596.81;5063736;28;19939;-76
2023/10/16 13:51:00;;;;;;;;;;;;;;;11.71;63.78;96588.91;5063678;28;19958;-76
2023/10/16 13:53:26;;;;;;;;;;;;;;;11.69;63.43;96591.75;5063963;28;19930;-77
2023/10/16 13:55:55;;;;;;;;;;;;;;;11.65;64.84;96595.84;5066218;28;19941;-76
2023/10/16 13:58:21;;;;;;;;;;;;;;;11.77;66.84;96596.72;5067670;28;19941;-76
2023/10/16 14:00:47;;;;;;;;;;;;;;;11.84;64.34;96586.13;5068508;28;19971;-70
2023/10/16 14:05:47;;;;;;;;;;;;;;;11.74;64.79;96577.97;5067576;28;20267;-79
2023/10/16 14:08:41;;;;;;;;;;;;;;;11.76;67.75;96581.97;5068283;28;19928;-78
2023/10/16 14:11:11;;;;;;;;;;;;;;;11.84;65.76;96583.47;5067386;28;19957;-79
2023/10/16 14:13:40;;;;;;;;;;;;;;;11.87;62.97;96572.53;5067969;28;19942;-80
2023/10/16 14:16:17;;;;;;;;;;;;;;;11.73;62.36;96571.09;5067400;28;20116;-80
2023/10/16 14:18:43;;;;;;;;;;;;;;;11.72;66.53;96580.81;5067575;28;20125;-73
2023/10/16 14:21:11;;;;;;;;;;;;;;;11.76;66.75;96584.63;5067181;28;19966;-72
2023/10/16 14:23:38;;;;;;;;;;;;;;;11.64;64.25;96580.31;5067729;28;19942;-72
2023/10/16 14:26:11;;;;;;;;;;;;;;;11.59;60.79;96573.13;5067144;28;19940;-72
2023/10/16 14:28:41;;;;;;;;;;;;;;;11.58;62.68;96574.91;5067219;28;19936;-72
2023/10/16 14:31:11;;;;;;;;;;;;;;;11.61;64.17;96581.56;5066949;28;19953;-72
2023/10/16 14:33:37;;;;;;;;;;;;;;;11.64;65.89;96580.31;5067852;28;19941;-72
2023/10/16 14:36:04;;;;;;;;;;;;;;;11.63;64.85;96579.50;5067484;28;20133;-72
2023/10/16 14:38:30;;;;;;;;;;;;;;;11.55;61.79;96582.47;5066963;28;19938;-69
2023/10/16 14:41:02;;;;;;;;;;;;;;;11.50;62.96;96574.41;5066902;28;19939;-72
2023/10/16 14:43:29;;;;;;;;;;;;;;;11.47;66.03;96580.91;5066856;28;19936;-72
2023/10/16 14:45:55;;;;;;;;;;;;;;;11.45;65.51;96574.28;5066814;28;19934;-72
2023/10/16 14:48:24;;;;;;;;;;;;;;;11.39;65.05;96575.97;5066585;28;20034;-72